Time;durP1;ratioP1;P1;durP2;ratioP2;P2;SDS_P1;SDS_P2;PMS_P1;PMS_P2;Temp;Humidity;BMP_temperature;BMP_pressure;BME280_temperature;BME280_humidity;BME280_pressure;Samples;Min_cycle;Max_cycle;Signal;HPM_P1;HPM_P2
2022/01/13 00:02:32;;;;;;;111.72;40.63;;;;;;;1.96;100.00;104094.66;10461414;28;20069;-56
2022/01/13 00:07:36;;;;;;;164.38;49.10;;;;;;;1.67;100.00;104099.78;10461585;28;20070;-52
2022/01/13 00:37:44;;;;;;;111.47;38.08;;;;;;;1.90;100.00;104075.50;10459786;28;20045;-54
2022/01/13 00:42:46;;;;;;;154.50;43.55;;;;;;;1.68;100.00;104077.41;10459671;28;20068;-54
2022/01/13 00:47:48;;;;;;;182.95;45.88;;;;;;;1.72;100.00;104061.19;10459591;28;20053;-54
2022/01/13 00:52:51;;;;;;;192.68;47.03;;;;;;;1.66;100.00;104066.16;10458719;28;20409;-55
2022/01/13 00:57:53;;;;;;;177.02;47.30;;;;;;;1.57;100.00;104068.44;10459225;28;20049;-57
2022/01/13 01:02:55;;;;;;;234.15;52.05;;;;;;;1.61;100.00;104068.56;10459064;28;20060;-58
2022/01/13 01:07:58;;;;;;;91.82;34.45;;;;;;;1.89;100.00;104076.34;10458636;28;20413;-55
2022/01/13 01:13:10;;;;;;;150.68;41.95;;;;;;;1.59;100.00;104079.69;10458224;28;20405;-53
2022/01/13 01:23:27;;;;;;;189.95;45.17;;;;;;;1.63;100.00;104089.28;10457095;28;20045;-55
2022/01/13 01:28:40;;;;;;;160.85;45.83;;;;;;;1.54;100.00;104083.84;10458069;28;20052;-55
2022/01/13 01:33:52;;;;;;;180.70;47.05;;;;;;;1.40;100.00;104079.09;10458025;28;20053;-52
2022/01/13 01:38:56;;;;;;;182.43;47.13;;;;;;;1.63;100.00;104081.53;10458406;28;20041;-56
2022/01/13 01:44:00;;;;;;;199.35;48.90;;;;;;;1.45;100.00;104085.28;10457248;28;20512;-54
2022/01/13 01:49:08;;;;;;;118.40;39.35;;;;;;;1.75;100.00;104073.31;10457381;28;20131;-55
2022/01/13 01:54:10;;;;;;;166.90;45.25;;;;;;;1.39;100.00;104067.00;10455816;28;20067;-55
2022/01/13 01:59:16;;;;;;;167.23;45.63;;;;;;;1.54;100.00;104060.59;10456935;28;20045;-57
2022/01/13 02:04:20;;;;;;;96.10;35.92;;;;;;;2.00;100.00;104080.13;10456758;28;20515;-55
2022/01/13 02:09:23;;;;;;;182.75;46.33;;;;;;;1.48;100.00;104067.31;10455501;28;20402;-54
2022/01/13 02:19:32;;;;;;;147.20;42.90;;;;;;;1.85;100.00;104086.59;10457210;28;20052;-56
2022/01/13 02:24:35;;;;;;;117.30;35.83;;;;;;;1.85;100.00;104080.56;10456231;28;20382;-54
2022/01/13 02:29:37;;;;;;;213.55;44.78;;;;;;;1.53;100.00;104080.38;10456579;28;20052;-55
2022/01/13 02:34:40;;;;;;;136.13;36.92;;;;;;;1.55;100.00;104083.88;10455983;28;20048;-58
2022/01/13 02:39:42;;;;;;;143.23;38.50;;;;;;;1.63;100.00;104068.63;10455925;28;20052;-54
2022/01/13 02:45:00;;;;;;;104.45;35.03;;;;;;;1.57;100.00;104084.81;10456013;28;20421;-56
2022/01/13 02:50:04;;;;;;;117.40;36.53;;;;;;;1.79;100.00;104080.34;10456581;28;20135;-53
2022/01/13 02:55:08;;;;;;;104.97;33.97;;;;;;;1.76;100.00;104072.50;10460758;28;20110;-56
2022/01/13 03:00:11;;;;;;;115.03;35.22;;;;;;;1.74;100.00;104056.94;10464167;28;20045;-55
2022/01/13 03:05:14;;;;;;;163.98;36.75;;;;;;;1.57;100.00;104061.56;10462551;28;20064;-54
2022/01/13 03:10:17;;;;;;;150.45;37.38;;;;;;;1.37;100.00;104057.47;10463216;28;20431;-57
2022/01/13 03:15:19;;;;;;;187.93;40.35;;;;;;;1.49;100.00;104057.84;10462800;28;20485;-57
2022/01/13 03:20:21;;;;;;;104.68;31.25;;;;;;;1.38;100.00;104051.44;10463149;28;20053;-51
2022/01/13 03:25:24;;;;;;;87.50;28.70;;;;;;;1.47;100.00;104050.06;10462946;28;20056;-56
2022/01/13 03:30:26;;;;;;;138.05;36.15;;;;;;;1.37;100.00;104049.72;10462540;28;20049;-56
2022/01/13 03:35:29;;;;;;;77.28;28.60;;;;;;;1.34;100.00;104039.28;10462809;28;20057;-56
2022/01/13 03:40:31;;;;;;;125.38;33.83;;;;;;;1.40;100.00;104037.78;10462349;28;20045;-55
2022/01/13 03:45:34;;;;;;;94.80;29.98;;;;;;;1.52;100.00;104044.19;10462059;28;20064;-54
2022/01/13 03:50:36;;;;;;;110.82;30.42;;;;;;;1.55;100.00;104042.56;10462246;28;20055;-52
2022/01/13 03:55:39;;;;;;;178.32;35.03;;;;;;;1.27;100.00;104046.81;10461417;28;20068;-55
2022/01/13 04:01:25;;;;;;;77.60;28.10;;;;;;;1.48;100.00;104038.03;10461525;28;20060;-54
2022/01/13 04:06:38;;;;;;;66.50;25.70;;;;;;;1.41;100.00;104033.47;10454711;28;20099;-54
2022/01/13 04:11:40;;;;;;;90.60;28.80;;;;;;;1.38;100.00;104036.84;10461267;28;20049;-54
2022/01/13 04:16:43;;;;;;;106.78;32.13;;;;;;;1.52;100.00;104023.53;10460877;28;20053;-57
2022/01/13 04:21:45;;;;;;;118.53;34.95;;;;;;;1.31;100.00;104016.81;10459619;28;20103;-54
2022/01/13 04:26:47;;;;;;;80.45;29.20;;;;;;;1.21;100.00;104014.75;10459314;28;20056;-53
2022/01/13 04:31:51;;;;;;;83.90;29.42;;;;;;;1.48;100.00;104015.66;10459146;28;20052;-55
2022/01/13 04:37:00;;;;;;;75.07;28.95;;;;;;;1.43;100.00;104018.91;10460038;28;20056;-55
2022/01/13 04:42:02;;;;;;;119.68;30.35;;;;;;;1.25;100.00;104011.47;10460433;28;20168;-54
2022/01/13 04:47:07;;;;;;;83.15;28.48;;;;;;;1.47;100.00;104011.31;10460247;28;20063;-55
2022/01/13 04:52:09;;;;;;;76.30;26.35;;;;;;;1.46;100.00;104013.84;10459193;28;20053;-54
2022/01/13 04:57:17;;;;;;;99.15;25.85;;;;;;;1.45;100.00;104022.44;10459567;28;20048;-56
2022/01/13 05:02:19;;;;;;;101.95;26.48;;;;;;;1.53;100.00;104038.16;10459088;28;20560;-52
2022/01/13 05:07:22;;;;;;;99.53;27.70;;;;;;;1.44;100.00;104044.78;10459094;28;20064;-55
2022/01/13 05:12:30;;;;;;;80.68;25.75;;;;;;;1.55;100.00;104052.03;10457442;28;20055;-53
2022/01/13 05:18:05;;;;;;;73.18;23.58;;;;;;;1.43;100.00;104049.88;10458400;28;20048;-50
2022/01/13 05:23:09;;;;;;;60.33;21.50;;;;;;;1.52;100.00;104034.72;10458138;28;20049;-54
2022/01/13 05:28:12;;;;;;;89.65;28.42;;;;;;;1.52;100.00;104032.13;10459067;28;20060;-54
2022/01/13 05:33:14;;;;;;;123.25;31.60;;;;;;;1.33;100.00;104025.50;10457867;28;20128;-54
2022/01/13 05:38:18;;;;;;;74.35;26.45;;;;;;;1.60;100.00;104029.81;10457526;28;20397;-57
2022/01/13 05:43:21;;;;;;;92.82;28.92;;;;;;;1.35;100.00;104023.84;10457570;28;20053;-51
2022/01/13 05:48:23;;;;;;;94.88;29.25;;;;;;;1.34;100.00;104029.81;10457380;28;20044;-54
2022/01/13 05:53:26;;;;;;;69.10;25.67;;;;;;;1.32;100.00;104031.47;10456879;28;20057;-51
2022/01/13 05:58:28;;;;;;;105.38;30.48;;;;;;;1.48;100.00;104035.47;10456923;28;20045;-56
2022/01/13 06:03:31;;;;;;;106.43;29.60;;;;;;;1.40;100.00;104029.16;10457379;28;20059;-56
2022/01/13 06:08:34;;;;;;;90.60;26.42;;;;;;;1.59;100.00;104023.75;10459866;28;20079;-52
2022/01/13 06:13:37;;;;;;;85.03;25.27;;;;;;;1.44;100.00;104028.41;10456269;28;20512;-55
2022/01/13 06:18:39;;;;;;;92.57;24.30;;;;;;;1.47;100.00;104026.81;10456578;28;20052;-54
2022/01/13 06:23:41;;;;;;;58.38;20.65;;;;;;;1.49;100.00;104019.97;10456205;28;20052;-53
2022/01/13 06:28:44;;;;;;;63.50;21.67;;;;;;;1.43;100.00;104014.63;10457899;28;20053;-54
2022/01/13 06:33:46;;;;;;;79.82;24.55;;;;;;;1.17;100.00;104018.94;10464494;28;20048;-53
2022/01/13 06:38:50;;;;;;;131.27;26.50;;;;;;;1.04;100.00;104017.66;10464801;28;20118;-57
2022/01/13 06:43:53;;;;;;;74.47;24.25;;;;;;;1.40;100.00;104006.78;10464647;28;20049;-56
2022/01/13 06:48:55;;;;;;;82.45;24.55;;;;;;;1.45;100.00;104015.56;10463903;28;20049;-53
2022/01/13 06:53:57;;;;;;;79.57;22.77;;;;;;;1.62;100.00;104022.97;10463723;28;20057;-55
2022/01/13 06:59:04;;;;;;;84.97;24.92;;;;;;;1.42;100.00;104025.78;10463966;28;20052;-57
2022/01/13 07:04:12;;;;;;;69.40;23.45;;;;;;;1.28;100.00;104017.59;10463867;28;20057;-54
2022/01/13 07:09:17;;;;;;;103.93;25.27;;;;;;;1.22;100.00;104014.81;10463786;28;20045;-55
2022/01/13 07:14:19;;;;;;;81.70;22.38;;;;;;;1.39;100.00;104017.06;10463076;28;20485;-53
2022/01/13 07:19:21;;;;;;;81.22;22.83;;;;;;;1.36;100.00;104014.38;10463153;28;20049;-54
2022/01/13 07:24:24;;;;;;;74.53;20.25;;;;;;;1.39;100.00;104014.47;10462220;28;20049;-52
2022/01/13 07:29:26;;;;;;;110.30;22.40;;;;;;;1.46;100.00;104021.59;10461696;28;20049;-55
2022/01/13 07:34:28;;;;;;;109.80;25.25;;;;;;;1.28;100.00;104019.31;10462520;28;20055;-53
2022/01/13 07:39:31;;;;;;;82.53;21.92;;;;;;;1.52;100.00;104026.09;10461914;28;20436;-57
2022/01/13 07:44:33;;;;;;;58.03;19.30;;;;;;;1.65;100.00;104023.09;10462003;28;20531;-51
2022/01/13 07:49:36;;;;;;;97.78;26.02;;;;;;;1.39;100.00;104022.22;10460544;28;20048;-55
2022/01/13 07:54:38;;;;;;;89.60;23.40;;;;;;;1.52;100.00;104019.22;10461541;28;20060;-53
2022/01/13 07:59:40;;;;;;;123.00;25.13;;;;;;;1.38;100.00;104028.22;10461685;28;20405;-55
2022/01/13 08:04:43;;;;;;;108.38;25.40;;;;;;;1.33;100.00;104040.09;10461452;28;20056;-54
2022/01/13 08:09:45;;;;;;;47.53;19.20;;;;;;;1.51;100.00;104045.84;10460783;28;20045;-58
2022/01/13 08:14:50;;;;;;;124.95;28.88;;;;;;;1.46;100.00;104050.00;10460791;28;20045;-56
2022/01/13 08:19:52;;;;;;;110.57;25.35;;;;;;;1.64;100.00;104052.31;10460820;28;20159;-55
2022/01/13 08:24:55;;;;;;;140.40;27.50;;;;;;;1.60;100.00;104050.47;10460435;28;20416;-53
2022/01/13 08:29:57;;;;;;;54.80;19.85;;;;;;;1.80;100.00;104054.56;10460377;28;20401;-57
2022/01/13 08:34:59;;;;;;;153.27;28.33;;;;;;;1.56;100.00;104053.75;10460231;28;20052;-54
2022/01/13 08:40:05;;;;;;;64.03;20.48;;;;;;;1.76;100.00;104063.03;10459958;28;20120;-54
2022/01/13 08:45:10;;;;;;;86.88;22.58;;;;;;;1.77;100.00;104074.25;10459890;28;20404;-53
2022/01/13 08:50:12;;;;;;;91.40;20.75;;;;;;;1.45;100.00;104059.47;10458827;28;20049;-52
2022/01/13 08:55:14;;;;;;;73.78;23.73;;;;;;;1.82;100.00;104068.41;10459179;28;20065;-57
2022/01/13 09:00:17;;;;;;;59.95;20.70;;;;;;;1.91;100.00;104065.22;10459315;28;20051;-58
2022/01/13 09:05:20;;;;;;;73.47;21.88;;;;;;;1.92;100.00;104063.53;10459178;28;20049;-59
2022/01/13 09:10:22;;;;;;;68.95;21.85;;;;;;;1.74;100.00;104067.28;10458845;28;20072;-58
2022/01/13 09:15:37;;;;;;;67.72;17.52;;;;;;;2.04;100.00;104069.06;10459187;28;20133;-55
2022/01/13 09:20:39;;;;;;;75.78;22.23;;;;;;;2.07;100.00;104063.09;10458359;28;20044;-56
2022/01/13 09:25:42;;;;;;;40.20;17.30;;;;;;;1.97;100.00;104073.16;10458661;28;20132;-55
2022/01/13 09:30:44;;;;;;;57.63;20.33;;;;;;;1.87;100.00;104076.31;10458163;28;20041;-52
2022/01/13 09:35:47;;;;;;;75.05;20.65;;;;;;;1.99;100.00;104075.81;10455993;28;20051;-54
2022/01/13 09:40:52;;;;;;;63.03;21.80;;;;;;;1.92;100.00;104081.63;10458475;28;20057;-56
2022/01/13 09:45:57;;;;;;;68.10;23.65;;;;;;;1.66;100.00;104079.97;10457499;28;20409;-54
2022/01/13 09:51:00;;;;;;;72.93;23.77;;;;;;;1.90;100.00;104085.84;10456558;28;20045;-56
2022/01/13 09:56:03;;;;;;;39.83;17.73;;;;;;;1.89;100.00;104099.59;10457534;28;20512;-57
2022/01/13 10:01:06;;;;;;;52.80;19.95;;;;;;;2.27;100.00;104105.06;10457053;28;20049;-56
2022/01/13 10:06:18;;;;;;;75.78;23.27;;;;;;;2.24;100.00;104100.69;10456941;28;20059;-54
2022/01/13 10:11:39;;;;;;;52.60;18.65;;;;;;;1.96;100.00;104081.75;10457482;28;20051;-57
2022/01/13 10:16:48;;;;;;;69.97;21.95;;;;;;;1.70;100.00;104080.94;10456411;28;20409;-58
2022/01/13 10:22:01;;;;;;;45.47;17.75;;;;;;;2.01;100.00;104076.72;10455104;28;20392;-55
2022/01/13 10:27:12;;;;;;;55.00;21.30;;;;;;;1.97;100.00;104075.75;10456461;28;20048;-54
2022/01/13 10:32:26;;;;;;;55.47;21.80;;;;;;;2.17;100.00;104086.72;10456742;28;20056;-58
2022/01/13 10:37:37;;;;;;;32.17;16.13;;;;;;;2.33;100.00;104077.69;10457134;28;20115;-58
2022/01/13 10:47:52;;;;;;;47.00;19.05;;;;;;;2.28;100.00;104070.63;10456047;28;20060;-53
2022/01/13 10:52:55;;;;;;;35.30;17.80;;;;;;;2.30;100.00;104058.63;10455728;28;20064;-53
2022/01/13 10:57:58;;;;;;;34.67;17.92;;;;;;;2.59;100.00;104046.56;10455526;28;20056;-57
2022/01/13 11:03:03;;;;;;;37.47;18.25;;;;;;;2.48;100.00;104042.78;10454319;28;20081;-57
2022/01/13 11:08:07;;;;;;;40.60;19.65;;;;;;;2.59;100.00;104038.78;10455594;28;20459;-56
2022/01/13 11:13:17;;;;;;;66.32;21.17;;;;;;;2.14;100.00;104042.66;10454306;28;20477;-56
2022/01/13 11:18:20;;;;;;;39.75;18.45;;;;;;;2.41;100.00;104044.31;10463705;28;20045;-57
2022/01/13 11:23:23;;;;;;;57.03;21.60;;;;;;;2.26;100.00;104036.97;10462972;28;20119;-54
2022/01/13 11:28:26;;;;;;;70.70;21.73;;;;;;;2.52;100.00;104029.09;10461529;28;20057;-56
2022/01/13 11:33:28;;;;;;;43.03;20.23;;;;;;;2.79;100.00;104027.28;10462619;28;20052;-54
2022/01/13 11:38:31;;;;;;;34.65;18.58;;;;;;;2.65;100.00;104027.72;10462968;28;20045;-54
2022/01/13 11:43:37;;;;;;;57.15;22.40;;;;;;;2.91;100.00;104026.72;10462212;28;20053;-56
2022/01/13 11:48:52;;;;;;;43.72;19.55;;;;;;;2.50;100.00;104028.16;10462171;28;20041;-55
2022/01/13 11:53:57;;;;;;;42.75;20.65;;;;;;;2.86;100.00;104024.81;10462557;28;20366;-56
2022/01/13 11:59:00;;;;;;;38.33;18.33;;;;;;;3.00;100.00;104023.50;10460668;28;20041;-56
2022/01/13 12:04:08;;;;;;;48.72;20.80;;;;;;;2.25;100.00;104017.13;10462485;28;20060;-58
2022/01/13 12:09:32;;;;;;;34.15;18.23;;;;;;;2.73;100.00;104008.13;10461951;28;20046;-54
2022/01/13 12:14:39;;;;;;;37.10;19.77;;;;;;;2.87;100.00;104003.28;10461597;28;20052;-55
2022/01/13 12:19:46;;;;;;;39.03;18.98;;;;;;;2.86;100.00;103999.84;10461006;28;20041;-51
2022/01/13 12:24:53;;;;;;;49.08;22.23;;;;;;;2.67;100.00;103995.88;10460138;28;20049;-56
2022/01/13 12:30:08;;;;;;;43.88;21.17;;;;;;;2.72;100.00;103990.81;10459686;28;20398;-57
2022/01/13 12:35:14;;;;;;;51.50;23.85;;;;;;;3.06;100.00;103983.94;10461112;28;20049;-58
2022/01/13 12:40:24;;;;;;;66.32;24.50;;;;;;;2.75;100.00;103980.56;10460232;28;20049;-53
2022/01/13 12:45:29;;;;;;;39.33;18.07;;;;;;;2.78;100.00;103978.06;10460336;28;20049;-56
2022/01/13 12:50:33;;;;;;;86.05;25.85;;;;;;;2.75;100.00;103967.63;10459779;28;20049;-55
2022/01/13 12:55:36;;;;;;;37.53;19.70;;;;;;;2.95;100.00;103976.78;10459096;28;20053;-54
2022/01/13 13:00:40;;;;;;;42.22;20.58;;;;;;;3.16;100.00;103952.25;10459689;28;20068;-57
2022/01/13 13:05:47;;;;;;;39.08;20.50;;;;;;;3.15;100.00;103945.34;10459048;28;20527;-58
2022/01/13 13:10:57;;;;;;;49.20;19.48;;;;;;;2.87;100.00;103939.47;10458887;28;20482;-55
2022/01/13 13:16:06;;;;;;;47.60;20.05;;;;;;;2.75;100.00;103942.63;10458671;28;20055;-56
2022/01/13 13:21:11;;;;;;;75.65;25.58;;;;;;;2.75;100.00;103939.16;10458543;28;20458;-57
2022/01/13 13:26:16;;;;;;;67.85;27.08;;;;;;;2.82;100.00;103937.59;10458322;28;20055;-58
2022/01/13 13:31:29;;;;;;;41.08;18.98;;;;;;;2.93;100.00;103931.00;10458600;28;20045;-56
2022/01/13 13:36:37;;;;;;;53.38;22.38;;;;;;;3.10;100.00;103913.28;10457652;28;20128;-54
2022/01/13 13:41:41;;;;;;;53.42;24.50;;;;;;;3.04;100.00;103901.03;10458018;28;20045;-57
2022/01/13 13:46:48;;;;;;;74.15;26.25;;;;;;;3.23;100.00;103893.72;10457595;28;20055;-55
2022/01/13 13:52:03;;;;;;;59.88;26.48;;;;;;;3.13;100.00;103893.50;10457738;28;20049;-56
2022/01/13 13:57:07;;;;;;;70.97;26.38;;;;;;;3.13;100.00;103885.75;10457371;28;20061;-57
2022/01/13 14:02:11;;;;;;;51.28;24.58;;;;;;;3.33;100.00;103874.97;10455992;28;20044;-56
2022/01/13 14:07:38;;;;;;;50.25;23.05;;;;;;;3.34;100.00;103877.56;10456916;28;20420;-56
2022/01/13 14:12:46;;;;;;;62.30;23.75;;;;;;;3.33;100.00;103883.63;10456758;28;20055;-57
2022/01/13 14:18:14;;;;;;;58.72;23.98;;;;;;;3.14;100.00;103887.50;10455891;28;20044;-55
2022/01/13 14:23:19;;;;;;;63.83;25.15;;;;;;;3.22;100.00;103890.25;10455810;28;20044;-57
2022/01/13 14:28:27;;;;;;;51.38;22.35;;;;;;;3.26;100.00;103892.09;10456346;28;20053;-58
2022/01/13 14:33:37;;;;;;;61.45;23.58;;;;;;;3.31;100.00;103894.75;10456326;28;20493;-54
2022/01/13 14:38:41;;;;;;;82.80;23.85;;;;;;;3.06;100.00;103901.97;10456046;28;20049;-56
2022/01/13 14:44:01;;;;;;;79.53;24.65;;;;;;;3.05;100.00;103897.63;10456006;28;20064;-58
2022/01/13 14:49:05;;;;;;;88.65;26.60;;;;;;;3.09;100.00;103908.94;10457406;28;20512;-57
2022/01/13 14:54:07;;;;;;;50.80;23.02;;;;;;;3.24;100.00;103916.19;10464261;28;20056;-55
2022/01/13 14:59:10;;;;;;;85.40;22.38;;;;;;;3.02;100.00;103912.22;10464109;28;20048;-56
2022/01/13 15:04:13;;;;;;;74.90;25.88;;;;;;;3.00;100.00;103906.13;10463751;28;20056;-55
2022/01/13 15:09:16;;;;;;;76.90;27.17;;;;;;;2.85;100.00;103917.84;10463740;28;20060;-57
2022/01/13 15:14:18;;;;;;;71.05;24.52;;;;;;;2.68;100.00;103917.44;10463070;28;20053;-57
2022/01/13 15:19:20;;;;;;;63.40;24.85;;;;;;;3.09;100.00;103920.19;10462453;28;20060;-55
2022/01/13 15:24:23;;;;;;;46.85;22.75;;;;;;;3.04;100.00;103916.56;10462955;28;20488;-56
2022/01/13 15:29:25;;;;;;;56.40;24.42;;;;;;;2.77;100.00;103909.91;10462906;28;20072;-53
2022/01/13 15:34:28;;;;;;;63.72;25.60;;;;;;;2.87;100.00;103903.22;10462335;28;20112;-54
2022/01/13 15:39:30;;;;;;;48.20;20.85;;;;;;;2.88;100.00;103894.63;10461195;28;20056;-52
2022/01/13 15:44:32;;;;;;;60.00;23.83;;;;;;;2.83;100.00;103897.97;10460939;28;20497;-57
2022/01/13 15:49:35;;;;;;;88.65;28.38;;;;;;;2.73;100.00;103902.91;10462076;28;20099;-54
2022/01/13 15:54:38;;;;;;;67.03;24.70;;;;;;;2.86;100.00;103901.50;10462178;28;20064;-54
2022/01/13 15:59:43;;;;;;;65.38;24.63;;;;;;;3.01;100.00;103898.41;10461335;28;20143;-56
2022/01/13 16:04:46;;;;;;;62.20;24.02;;;;;;;2.85;100.00;103886.78;10461660;28;20447;-58
2022/01/13 16:09:48;;;;;;;88.03;26.10;;;;;;;2.85;100.00;103891.97;10461175;28;20404;-56
2022/01/13 16:14:54;;;;;;;57.75;22.80;;;;;;;2.85;100.00;103894.56;10461085;28;20051;-55
2022/01/13 16:19:56;;;;;;;58.75;24.58;;;;;;;2.96;100.00;103889.66;10461449;28;20045;-59
2022/01/13 16:24:58;;;;;;;93.30;24.63;;;;;;;2.63;100.00;103895.75;10460811;28;20055;-56
2022/01/13 16:30:06;;;;;;;106.72;25.60;;;;;;;2.62;100.00;103900.88;10460572;28;20382;-58
2022/01/13 16:35:11;;;;;;;78.63;25.15;;;;;;;2.86;100.00;103904.09;10460563;28;20045;-58
2022/01/13 16:40:17;;;;;;;64.22;24.33;;;;;;;2.72;100.00;103906.34;10459761;28;20053;-56
2022/01/13 16:45:22;;;;;;;150.88;34.78;;;;;;;2.51;100.00;103916.13;10460276;28;20060;-56
2022/01/13 16:50:26;;;;;;;54.40;21.33;;;;;;;2.60;100.00;103911.19;10459941;28;20124;-56
2022/01/13 16:55:29;;;;;;;98.78;24.98;;;;;;;2.73;100.00;103917.56;10459450;28;20061;-53
2022/01/13 17:00:33;;;;;;;68.40;25.92;;;;;;;2.63;100.00;103915.56;10460101;28;20045;-58
2022/01/13 17:05:35;;;;;;;61.53;24.42;;;;;;;2.84;100.00;103917.81;10459368;28;20053;-59
2022/01/13 17:10:38;;;;;;;45.25;22.08;;;;;;;3.04;100.00;103910.53;10458704;28;20515;-56
2022/01/13 17:15:40;;;;;;;79.05;25.75;;;;;;;2.77;100.00;103906.44;10458027;28;20056;-56
2022/01/13 17:20:43;;;;;;;103.35;28.27;;;;;;;2.83;100.00;103919.53;10458322;28;20489;-53
2022/01/13 17:25:45;;;;;;;59.75;20.60;;;;;;;2.52;100.00;103917.84;10458287;28;20276;-57
2022/01/13 17:30:48;;;;;;;86.28;23.80;;;;;;;2.41;100.00;103913.28;10458134;28;20044;-55
2022/01/13 17:35:50;;;;;;;76.53;22.88;;;;;;;2.40;100.00;103910.66;10457991;28;20049;-58
2022/01/13 17:40:53;;;;;;;59.95;18.27;;;;;;;2.65;100.00;103906.13;10456532;28;20045;-56
2022/01/13 17:45:55;;;;;;;70.03;24.60;;;;;;;2.40;100.00;103915.81;10457739;28;20059;-57
2022/01/13 17:50:58;;;;;;;79.72;27.48;;;;;;;2.52;100.00;103892.88;10457393;28;20107;-57
2022/01/13 17:56:00;;;;;;;115.15;27.52;;;;;;;2.57;100.00;103896.47;10455747;28;20524;-53
2022/01/13 18:01:03;;;;;;;129.20;29.00;;;;;;;2.75;100.00;103900.34;10457282;28;20044;-54
2022/01/13 18:06:06;;;;;;;97.53;24.38;;;;;;;2.58;100.00;103889.56;10456789;28;20053;-56
2022/01/13 18:11:09;;;;;;;88.10;22.45;;;;;;;2.73;100.00;103870.97;10456843;28;20053;-54
2022/01/13 18:16:13;;;;;;;75.55;24.08;;;;;;;2.68;100.00;103872.59;10456818;28;20053;-57
2022/01/13 18:21:15;;;;;;;61.08;22.77;;;;;;;3.06;100.00;103872.59;10457058;28;20045;-56
2022/01/13 18:26:18;;;;;;;88.28;23.80;;;;;;;2.80;100.00;103862.53;10454351;28;20071;-54
2022/01/13 18:31:21;;;;;;;43.15;18.70;;;;;;;3.05;100.00;103853.63;10456516;28;20083;-50
2022/01/13 18:36:23;;;;;;;84.75;24.20;;;;;;;2.75;100.00;103846.00;10456381;28;20057;-58
2022/01/13 18:41:26;;;;;;;96.63;24.90;;;;;;;2.83;100.00;103844.47;10456267;28;20053;-55
2022/01/13 18:46:28;;;;;;;81.60;25.88;;;;;;;2.69;100.00;103840.69;10456168;28;20049;-57
2022/01/13 18:51:33;;;;;;;55.90;21.02;;;;;;;2.83;100.00;103849.66;10456087;28;20048;-58
2022/01/13 18:56:36;;;;;;;48.15;21.35;;;;;;;2.97;100.00;103844.81;10456447;28;20053;-57
2022/01/13 19:01:38;;;;;;;53.95;20.20;;;;;;;2.93;100.00;103850.75;10455779;28;20401;-56
2022/01/13 19:06:44;;;;;;;79.53;24.23;;;;;;;2.82;100.00;103852.22;10455582;28;20057;-55
2022/01/13 19:11:47;;;;;;;79.85;23.80;;;;;;;2.84;100.00;103843.66;10455889;28;20045;-55
2022/01/13 19:16:49;;;;;;;61.85;21.02;;;;;;;2.81;100.00;103843.56;10455766;28;20049;-59
2022/01/13 19:21:52;;;;;;;97.65;27.15;;;;;;;2.79;100.00;103843.53;10455662;28;20053;-55
2022/01/13 19:26:54;;;;;;;98.68;28.98;;;;;;;2.92;100.00;103846.41;10455329;28;20053;-57
2022/01/13 19:31:56;;;;;;;55.83;19.92;;;;;;;2.79;100.00;103853.00;10454923;28;20057;-55
2022/01/13 19:36:58;;;;;;;99.13;28.92;;;;;;;2.89;100.00;103854.09;10459798;28;20045;-56
2022/01/13 19:42:01;;;;;;;62.00;21.88;;;;;;;2.98;100.00;103856.91;10462542;28;20057;-56
2022/01/13 19:47:05;;;;;;;75.07;24.60;;;;;;;3.08;100.00;103853.69;10462608;28;20049;-54
2022/01/13 19:52:08;;;;;;;63.22;25.05;;;;;;;2.94;100.00;103858.56;10462123;28;20055;-55
2022/01/13 19:57:10;;;;;;;78.05;24.92;;;;;;;2.93;100.00;103853.34;10462099;28;20055;-55
2022/01/13 20:02:13;;;;;;;61.50;24.92;;;;;;;2.90;100.00;103843.78;10461508;28;20053;-56
2022/01/13 20:07:15;;;;;;;78.78;27.08;;;;;;;3.14;100.00;103848.66;10461273;28;20092;-56
2022/01/13 20:12:19;;;;;;;89.95;25.85;;;;;;;3.16;100.00;103844.41;10461227;28;20045;-55
2022/01/13 20:17:22;;;;;;;74.05;24.15;;;;;;;3.04;100.00;103830.28;10460844;28;20052;-56
2022/01/13 20:22:25;;;;;;;73.25;25.70;;;;;;;2.91;100.00;103831.75;10460844;28;20053;-56
2022/01/13 20:27:27;;;;;;;72.15;21.45;;;;;;;3.12;100.00;103829.59;10459582;28;20049;-55
2022/01/13 20:32:30;;;;;;;56.55;19.35;;;;;;;3.08;100.00;103830.41;10460011;28;20078;-58
2022/01/13 20:37:53;;;;;;;86.75;23.70;;;;;;;3.14;100.00;103816.69;10460308;28;20045;-57
2022/01/13 20:42:55;;;;;;;62.33;24.95;;;;;;;3.19;100.00;103803.88;10460255;28;20052;-57
2022/01/13 20:47:58;;;;;;;70.95;23.83;;;;;;;3.15;100.00;103797.75;10459081;28;20409;-58
2022/01/13 20:53:00;;;;;;;62.10;23.48;;;;;;;3.03;100.00;103797.50;10459515;28;20378;-56
2022/01/13 20:58:03;;;;;;;94.18;28.60;;;;;;;2.86;100.00;103807.44;10459287;28;20051;-57
2022/01/13 21:03:05;;;;;;;64.85;23.60;;;;;;;3.00;100.00;103802.59;10459596;28;20045;-57
2022/01/13 21:08:08;;;;;;;51.35;21.30;;;;;;;2.96;100.00;103792.16;10459024;28;20487;-55
2022/01/13 21:13:11;;;;;;;52.83;20.67;;;;;;;3.08;100.00;103788.97;10458956;28;20047;-56
2022/01/13 21:18:14;;;;;;;49.13;19.23;;;;;;;3.00;100.00;103790.53;10458631;28;20399;-55
2022/01/13 21:23:17;;;;;;;49.20;20.60;;;;;;;3.06;100.00;103789.78;10458345;28;20048;-53
2022/01/13 21:28:19;;;;;;;61.38;20.83;;;;;;;2.94;100.00;103785.19;10458171;28;20049;-53
2022/01/13 21:33:23;;;;;;;62.83;20.50;;;;;;;2.64;100.00;103793.13;10457223;28;20059;-53
2022/01/13 21:38:47;;;;;;;66.57;22.58;;;;;;;2.86;100.00;103789.31;10458976;28;20053;-55
2022/01/13 21:43:52;;;;;;;38.78;16.92;;;;;;;2.86;100.00;103781.56;10457971;28;20060;-57
2022/01/13 21:48:56;;;;;;;42.60;19.33;;;;;;;2.62;100.00;103787.91;10457598;28;20099;-56
2022/01/13 21:53:58;;;;;;;52.55;19.83;;;;;;;2.89;100.00;103792.88;10457363;28;20057;-53
2022/01/13 21:59:00;;;;;;;71.15;24.85;;;;;;;2.95;100.00;103785.22;10456984;28;20048;-54
2022/01/13 22:04:03;;;;;;;51.72;20.92;;;;;;;2.82;100.00;103785.78;10456984;28;20061;-55
2022/01/13 22:14:07;;;;;;;42.20;20.33;;;;;;;2.92;100.00;103771.34;10457105;28;20049;-56
2022/01/13 22:19:11;;;;;;;47.20;20.75;;;;;;;2.93;100.00;103775.69;10455490;28;20049;-58
2022/01/13 22:24:14;;;;;;;56.25;21.77;;;;;;;2.77;100.00;103775.34;10456403;28;20045;-58
2022/01/13 22:29:16;;;;;;;34.85;18.70;;;;;;;2.91;100.00;103780.84;10456982;28;20053;-56
2022/01/13 22:34:18;;;;;;;62.47;22.73;;;;;;;2.79;100.00;103771.09;10456220;28;20041;-56
2022/01/13 22:39:21;;;;;;;41.55;18.30;;;;;;;2.77;100.00;103764.13;10456724;28;20045;-56
2022/01/13 22:44:24;;;;;;;43.50;19.85;;;;;;;2.67;100.00;103755.25;10456113;28;20055;-55
2022/01/13 22:49:26;;;;;;;43.00;18.65;;;;;;;2.90;100.00;103745.44;10455956;28;20053;-55
2022/01/13 22:54:29;;;;;;;49.35;21.08;;;;;;;2.63;100.00;103745.69;10455964;28;20057;-55
2022/01/13 22:59:31;;;;;;;45.55;19.05;;;;;;;2.79;100.00;103739.13;10455907;28;20052;-54
2022/01/13 23:04:34;;;;;;;44.83;19.95;;;;;;;2.84;100.00;103734.97;10455670;28;20485;-55
2022/01/13 23:09:37;;;;;;;42.38;19.98;;;;;;;2.69;100.00;103732.91;10456291;28;20528;-57
2022/01/13 23:25:14;;;;;;;59.10;22.63;;;;;;;2.75;100.00;103719.22;10463713;28;20049;-54
2022/01/13 23:30:17;;;;;;;40.00;19.38;;;;;;;2.78;100.00;103717.56;10462972;28;20053;-53
2022/01/13 23:35:20;;;;;;;66.40;26.95;;;;;;;2.65;100.00;103733.66;10463493;28;20053;-56
2022/01/13 23:40:22;;;;;;;60.83;24.70;;;;;;;2.75;100.00;103727.00;10462506;28;20045;-56